sensor_id;sensor_type;location;lat;lon;timestamp;P1;durP1;ratioP1;P2;durP2;ratioP2
51852;SDS011;37894;53.172;6.598;2023-09-18T00:00:40;81.47;;;39.67;;
51852;SDS011;37894;53.172;6.598;2023-09-18T00:03:07;87.60;;;39.38;;
51852;SDS011;37894;53.172;6.598;2023-09-18T00:05:33;93.38;;;40.97;;
51852;SDS011;37894;53.172;6.598;2023-09-18T00:07:59;86.35;;;39.45;;
51852;SDS011;37894;53.172;6.598;2023-09-18T00:10:27;89.20;;;42.47;;
51852;SDS011;37894;53.172;6.598;2023-09-18T00:12:55;88.80;;;41.53;;
51852;SDS011;37894;53.172;6.598;2023-09-18T00:15:21;98.68;;;43.53;;
51852;SDS011;37894;53.172;6.598;2023-09-18T00:17:47;103.68;;;44.90;;
51852;SDS011;37894;53.172;6.598;2023-09-18T00:20:13;100.38;;;43.17;;
51852;SDS011;37894;53.172;6.598;2023-09-18T00:22:39;107.47;;;45.13;;
51852;SDS011;37894;53.172;6.598;2023-09-18T00:25:05;114.72;;;45.75;;
51852;SDS011;37894;53.172;6.598;2023-09-18T00:27:30;105.35;;;44.97;;
51852;SDS011;37894;53.172;6.598;2023-09-18T00:29:57;110.47;;;45.38;;
51852;SDS011;37894;53.172;6.598;2023-09-18T00:32:23;101.70;;;42.30;;
51852;SDS011;37894;53.172;6.598;2023-09-18T00:34:49;108.15;;;43.72;;
51852;SDS011;37894;53.172;6.598;2023-09-18T00:37:15;90.47;;;42.22;;
51852;SDS011;37894;53.172;6.598;2023-09-18T00:39:42;92.40;;;42.88;;
51852;SDS011;37894;53.172;6.598;2023-09-18T00:42:08;97.18;;;42.75;;
51852;SDS011;37894;53.172;6.598;2023-09-18T00:44:38;97.63;;;44.35;;
51852;SDS011;37894;53.172;6.598;2023-09-18T00:47:06;98.63;;;42.97;;
51852;SDS011;37894;53.172;6.598;2023-09-18T00:49:36;102.03;;;43.13;;
51852;SDS011;37894;53.172;6.598;2023-09-18T00:52:04;81.50;;;43.10;;
51852;SDS011;37894;53.172;6.598;2023-09-18T00:54:32;106.72;;;45.47;;
51852;SDS011;37894;53.172;6.598;2023-09-18T00:56:59;94.10;;;45.13;;
51852;SDS011;37894;53.172;6.598;2023-09-18T00:59:25;90.05;;;43.55;;
51852;SDS011;37894;53.172;6.598;2023-09-18T01:01:51;96.35;;;45.78;;
51852;SDS011;37894;53.172;6.598;2023-09-18T01:04:17;110.13;;;49.03;;
51852;SDS011;37894;53.172;6.598;2023-09-18T01:06:44;92.38;;;43.97;;
51852;SDS011;37894;53.172;6.598;2023-09-18T01:09:10;97.75;;;45.78;;
51852;SDS011;37894;53.172;6.598;2023-09-18T01:16:57;108.55;;;48.50;;
51852;SDS011;37894;53.172;6.598;2023-09-18T01:19:43;105.35;;;48.70;;
51852;SDS011;37894;53.172;6.598;2023-09-18T01:22:11;107.30;;;48.38;;
51852;SDS011;37894;53.172;6.598;2023-09-18T01:24:39;122.50;;;48.30;;
51852;SDS011;37894;53.172;6.598;2023-09-18T01:27:08;115.47;;;51.10;;
51852;SDS011;37894;53.172;6.598;2023-09-18T01:29:36;110.40;;;49.58;;
51852;SDS011;37894;53.172;6.598;2023-09-18T01:32:02;110.43;;;49.15;;
51852;SDS011;37894;53.172;6.598;2023-09-18T01:34:38;121.68;;;49.92;;
51852;SDS011;37894;53.172;6.598;2023-09-18T01:37:09;108.75;;;48.53;;
51852;SDS011;37894;53.172;6.598;2023-09-18T01:39:36;105.90;;;49.17;;
51852;SDS011;37894;53.172;6.598;2023-09-18T01:42:04;99.78;;;45.75;;
51852;SDS011;37894;53.172;6.598;2023-09-18T01:44:32;112.47;;;48.10;;
51852;SDS011;37894;53.172;6.598;2023-09-18T01:46:58;126.95;;;51.03;;
51852;SDS011;37894;53.172;6.598;2023-09-18T01:49:30;107.50;;;47.65;;
51852;SDS011;37894;53.172;6.598;2023-09-18T01:52:03;89.88;;;44.63;;
51852;SDS011;37894;53.172;6.598;2023-09-18T01:54:30;92.75;;;45.20;;
51852;SDS011;37894;53.172;6.598;2023-09-18T01:56:56;87.68;;;44.30;;
51852;SDS011;37894;53.172;6.598;2023-09-18T01:59:22;78.22;;;42.30;;
51852;SDS011;37894;53.172;6.598;2023-09-18T02:01:49;95.57;;;45.13;;
51852;SDS011;37894;53.172;6.598;2023-09-18T02:04:15;88.95;;;45.15;;
51852;SDS011;37894;53.172;6.598;2023-09-18T02:06:41;84.10;;;44.42;;
51852;SDS011;37894;53.172;6.598;2023-09-18T02:09:06;82.70;;;42.38;;
51852;SDS011;37894;53.172;6.598;2023-09-18T02:11:39;78.60;;;41.53;;
51852;SDS011;37894;53.172;6.598;2023-09-18T02:14:06;78.53;;;43.03;;
51852;SDS011;37894;53.172;6.598;2023-09-18T02:16:33;68.53;;;40.13;;
51852;SDS011;37894;53.172;6.598;2023-09-18T02:18:59;65.03;;;39.67;;
51852;SDS011;37894;53.172;6.598;2023-09-18T02:21:25;60.38;;;38.00;;
51852;SDS011;37894;53.172;6.598;2023-09-18T02:23:51;58.33;;;37.42;;
51852;SDS011;37894;53.172;6.598;2023-09-18T02:26:18;55.97;;;37.50;;
51852;SDS011;37894;53.172;6.598;2023-09-18T02:28:44;60.38;;;36.97;;
51852;SDS011;37894;53.172;6.598;2023-09-18T02:31:10;62.30;;;37.22;;
51852;SDS011;37894;53.172;6.598;2023-09-18T02:33:37;57.53;;;36.70;;
51852;SDS011;37894;53.172;6.598;2023-09-18T02:36:03;58.60;;;37.95;;
51852;SDS011;37894;53.172;6.598;2023-09-18T02:38:29;54.85;;;36.65;;
51852;SDS011;37894;53.172;6.598;2023-09-18T02:40:55;56.03;;;36.40;;
51852;SDS011;37894;53.172;6.598;2023-09-18T02:43:22;54.35;;;35.38;;
51852;SDS011;37894;53.172;6.598;2023-09-18T02:45:48;51.88;;;36.17;;
51852;SDS011;37894;53.172;6.598;2023-09-18T02:48:15;58.53;;;35.67;;
51852;SDS011;37894;53.172;6.598;2023-09-18T02:50:41;55.03;;;36.13;;
51852;SDS011;37894;53.172;6.598;2023-09-18T02:53:07;52.50;;;33.90;;
51852;SDS011;37894;53.172;6.598;2023-09-18T02:55:36;51.38;;;34.58;;
51852;SDS011;37894;53.172;6.598;2023-09-18T02:58:02;50.00;;;34.70;;
51852;SDS011;37894;53.172;6.598;2023-09-18T03:00:28;54.03;;;34.90;;
51852;SDS011;37894;53.172;6.598;2023-09-18T03:02:54;51.22;;;33.65;;
51852;SDS011;37894;53.172;6.598;2023-09-18T03:05:19;50.80;;;34.75;;
51852;SDS011;37894;53.172;6.598;2023-09-18T03:07:45;54.13;;;35.42;;
51852;SDS011;37894;53.172;6.598;2023-09-18T03:10:13;55.10;;;35.28;;
51852;SDS011;37894;53.172;6.598;2023-09-18T03:12:41;55.28;;;34.17;;
51852;SDS011;37894;53.172;6.598;2023-09-18T03:15:06;52.50;;;35.08;;
51852;SDS011;37894;53.172;6.598;2023-09-18T03:17:32;52.80;;;34.50;;
51852;SDS011;37894;53.172;6.598;2023-09-18T03:19:58;48.58;;;32.35;;
51852;SDS011;37894;53.172;6.598;2023-09-18T03:22:24;46.80;;;32.72;;
51852;SDS011;37894;53.172;6.598;2023-09-18T03:24:50;47.13;;;33.40;;
51852;SDS011;37894;53.172;6.598;2023-09-18T03:27:16;45.40;;;31.70;;
51852;SDS011;37894;53.172;6.598;2023-09-18T03:29:41;43.10;;;31.65;;
51852;SDS011;37894;53.172;6.598;2023-09-18T03:32:07;43.70;;;31.67;;
51852;SDS011;37894;53.172;6.598;2023-09-18T03:34:37;40.75;;;30.70;;
51852;SDS011;37894;53.172;6.598;2023-09-18T03:37:03;45.58;;;30.17;;
51852;SDS011;37894;53.172;6.598;2023-09-18T03:39:29;41.80;;;30.40;;
51852;SDS011;37894;53.172;6.598;2023-09-18T03:41:54;46.75;;;29.92;;
51852;SDS011;37894;53.172;6.598;2023-09-18T03:44:20;43.10;;;31.17;;
51852;SDS011;37894;53.172;6.598;2023-09-18T03:46:46;44.17;;;30.85;;
51852;SDS011;37894;53.172;6.598;2023-09-18T03:49:11;43.03;;;29.25;;
51852;SDS011;37894;53.172;6.598;2023-09-18T03:51:37;42.97;;;30.67;;
51852;SDS011;37894;53.172;6.598;2023-09-18T03:54:03;42.28;;;30.42;;
51852;SDS011;37894;53.172;6.598;2023-09-18T03:56:28;45.80;;;31.25;;
51852;SDS011;37894;53.172;6.598;2023-09-18T03:58:54;45.22;;;30.88;;
51852;SDS011;37894;53.172;6.598;2023-09-18T04:01:20;41.63;;;29.75;;
51852;SDS011;37894;53.172;6.598;2023-09-18T04:03:46;39.70;;;27.73;;
51852;SDS011;37894;53.172;6.598;2023-09-18T04:06:11;42.08;;;29.45;;
51852;SDS011;37894;53.172;6.598;2023-09-18T04:08:37;36.25;;;26.38;;
51852;SDS011;37894;53.172;6.598;2023-09-18T04:11:03;38.10;;;27.33;;
51852;SDS011;37894;53.172;6.598;2023-09-18T04:13:29;42.08;;;28.33;;
51852;SDS011;37894;53.172;6.598;2023-09-18T04:15:55;42.33;;;29.17;;
51852;SDS011;37894;53.172;6.598;2023-09-18T04:18:22;36.15;;;26.85;;
51852;SDS011;37894;53.172;6.598;2023-09-18T04:20:48;35.75;;;26.33;;
51852;SDS011;37894;53.172;6.598;2023-09-18T04:23:20;33.80;;;26.00;;
51852;SDS011;37894;53.172;6.598;2023-09-18T04:25:51;34.90;;;24.90;;
51852;SDS011;37894;53.172;6.598;2023-09-18T04:28:18;39.05;;;27.52;;
51852;SDS011;37894;53.172;6.598;2023-09-18T04:30:45;35.72;;;25.42;;
51852;SDS011;37894;53.172;6.598;2023-09-18T04:33:11;38.88;;;27.33;;
51852;SDS011;37894;53.172;6.598;2023-09-18T04:35:40;39.63;;;26.20;;
51852;SDS011;37894;53.172;6.598;2023-09-18T04:38:06;38.15;;;25.05;;
51852;SDS011;37894;53.172;6.598;2023-09-18T04:40:33;35.28;;;26.73;;
51852;SDS011;37894;53.172;6.598;2023-09-18T04:43:00;35.63;;;25.63;;
51852;SDS011;37894;53.172;6.598;2023-09-18T04:45:26;36.00;;;24.92;;
51852;SDS011;37894;53.172;6.598;2023-09-18T04:47:55;36.28;;;24.92;;
51852;SDS011;37894;53.172;6.598;2023-09-18T04:50:21;32.75;;;24.83;;
51852;SDS011;37894;53.172;6.598;2023-09-18T04:52:47;34.65;;;25.00;;
51852;SDS011;37894;53.172;6.598;2023-09-18T04:55:15;30.60;;;23.67;;
51852;SDS011;37894;53.172;6.598;2023-09-18T04:57:41;37.15;;;24.85;;
51852;SDS011;37894;53.172;6.598;2023-09-18T05:00:07;35.17;;;24.67;;
51852;SDS011;37894;53.172;6.598;2023-09-18T05:02:37;32.30;;;22.95;;
51852;SDS011;37894;53.172;6.598;2023-09-18T05:05:04;33.40;;;24.30;;
51852;SDS011;37894;53.172;6.598;2023-09-18T05:07:30;32.88;;;23.65;;
51852;SDS011;37894;53.172;6.598;2023-09-18T05:09:56;31.88;;;23.38;;
51852;SDS011;37894;53.172;6.598;2023-09-18T05:12:22;33.90;;;23.15;;
51852;SDS011;37894;53.172;6.598;2023-09-18T05:14:48;30.20;;;22.63;;
51852;SDS011;37894;53.172;6.598;2023-09-18T05:17:14;34.00;;;22.33;;
51852;SDS011;37894;53.172;6.598;2023-09-18T05:19:43;33.00;;;22.00;;
51852;SDS011;37894;53.172;6.598;2023-09-18T05:22:09;32.05;;;22.13;;
51852;SDS011;37894;53.172;6.598;2023-09-18T05:24:37;29.38;;;21.13;;
51852;SDS011;37894;53.172;6.598;2023-09-18T05:27:03;30.33;;;21.95;;
51852;SDS011;37894;53.172;6.598;2023-09-18T05:29:31;27.45;;;20.58;;
51852;SDS011;37894;53.172;6.598;2023-09-18T05:31:57;26.85;;;20.13;;
51852;SDS011;37894;53.172;6.598;2023-09-18T05:34:23;27.45;;;18.88;;
51852;SDS011;37894;53.172;6.598;2023-09-18T05:36:48;25.85;;;19.13;;
51852;SDS011;37894;53.172;6.598;2023-09-18T05:39:15;27.60;;;18.75;;
51852;SDS011;37894;53.172;6.598;2023-09-18T05:41:41;27.50;;;19.33;;
51852;SDS011;37894;53.172;6.598;2023-09-18T05:44:07;26.38;;;19.15;;
51852;SDS011;37894;53.172;6.598;2023-09-18T05:46:34;24.58;;;17.98;;
51852;SDS011;37894;53.172;6.598;2023-09-18T05:49:00;26.17;;;18.30;;
51852;SDS011;37894;53.172;6.598;2023-09-18T05:51:26;23.48;;;17.70;;
51852;SDS011;37894;53.172;6.598;2023-09-18T05:53:52;24.05;;;17.70;;
51852;SDS011;37894;53.172;6.598;2023-09-18T05:56:18;26.15;;;17.85;;
51852;SDS011;37894;53.172;6.598;2023-09-18T05:58:44;24.35;;;17.13;;
51852;SDS011;37894;53.172;6.598;2023-09-18T06:01:09;24.17;;;17.05;;
51852;SDS011;37894;53.172;6.598;2023-09-18T06:03:35;21.17;;;15.77;;
51852;SDS011;37894;53.172;6.598;2023-09-18T06:06:07;21.98;;;15.70;;
51852;SDS011;37894;53.172;6.598;2023-09-18T06:08:33;22.20;;;15.93;;
51852;SDS011;37894;53.172;6.598;2023-09-18T06:10:59;22.65;;;15.13;;
51852;SDS011;37894;53.172;6.598;2023-09-18T06:13:25;18.65;;;14.93;;
51852;SDS011;37894;53.172;6.598;2023-09-18T06:15:54;20.17;;;13.60;;
51852;SDS011;37894;53.172;6.598;2023-09-18T06:18:22;18.80;;;13.68;;
51852;SDS011;37894;53.172;6.598;2023-09-18T06:20:48;18.75;;;12.98;;
51852;SDS011;37894;53.172;6.598;2023-09-18T06:23:14;19.60;;;13.27;;
51852;SDS011;37894;53.172;6.598;2023-09-18T06:25:40;17.23;;;12.65;;
51852;SDS011;37894;53.172;6.598;2023-09-18T06:28:06;17.73;;;12.40;;
51852;SDS011;37894;53.172;6.598;2023-09-18T06:30:32;18.10;;;12.90;;
51852;SDS011;37894;53.172;6.598;2023-09-18T06:32:59;21.63;;;11.68;;
51852;SDS011;37894;53.172;6.598;2023-09-18T06:35:26;15.73;;;12.32;;
51852;SDS011;37894;53.172;6.598;2023-09-18T06:37:52;15.18;;;10.23;;
51852;SDS011;37894;53.172;6.598;2023-09-18T06:40:20;16.35;;;11.25;;
51852;SDS011;37894;53.172;6.598;2023-09-18T06:42:45;21.45;;;11.68;;
51852;SDS011;37894;53.172;6.598;2023-09-18T06:45:11;16.02;;;9.98;;
51852;SDS011;37894;53.172;6.598;2023-09-18T06:47:38;13.35;;;10.18;;
51852;SDS011;37894;53.172;6.598;2023-09-18T06:50:06;16.65;;;10.40;;
51852;SDS011;37894;53.172;6.598;2023-09-18T06:52:32;14.07;;;10.18;;
51852;SDS011;37894;53.172;6.598;2023-09-18T06:54:57;11.38;;;9.05;;
51852;SDS011;37894;53.172;6.598;2023-09-18T06:57:24;19.83;;;11.13;;
51852;SDS011;37894;53.172;6.598;2023-09-18T06:59:49;17.15;;;9.75;;
51852;SDS011;37894;53.172;6.598;2023-09-18T07:02:16;21.27;;;10.90;;
51852;SDS011;37894;53.172;6.598;2023-09-18T07:04:41;23.30;;;12.27;;
51852;SDS011;37894;53.172;6.598;2023-09-18T07:07:14;17.33;;;12.15;;
51852;SDS011;37894;53.172;6.598;2023-09-18T07:09:41;22.20;;;13.30;;
51852;SDS011;37894;53.172;6.598;2023-09-18T07:12:08;23.58;;;14.80;;
51852;SDS011;37894;53.172;6.598;2023-09-18T07:14:36;18.77;;;13.50;;
51852;SDS011;37894;53.172;6.598;2023-09-18T07:17:03;30.95;;;15.43;;
51852;SDS011;37894;53.172;6.598;2023-09-18T07:19:29;24.50;;;15.25;;
51852;SDS011;37894;53.172;6.598;2023-09-18T07:21:55;23.98;;;16.67;;
51852;SDS011;37894;53.172;6.598;2023-09-18T07:24:21;23.20;;;14.88;;
51852;SDS011;37894;53.172;6.598;2023-09-18T07:26:47;31.42;;;16.73;;
51852;SDS011;37894;53.172;6.598;2023-09-18T07:29:13;33.25;;;16.55;;
51852;SDS011;37894;53.172;6.598;2023-09-18T07:31:40;46.72;;;21.13;;
51852;SDS011;37894;53.172;6.598;2023-09-18T07:34:07;44.95;;;20.08;;
51852;SDS011;37894;53.172;6.598;2023-09-18T07:36:33;51.75;;;21.67;;
51852;SDS011;37894;53.172;6.598;2023-09-18T07:38:58;30.25;;;18.30;;
51852;SDS011;37894;53.172;6.598;2023-09-18T07:41:24;43.05;;;20.27;;
51852;SDS011;37894;53.172;6.598;2023-09-18T07:43:50;37.42;;;20.48;;
51852;SDS011;37894;53.172;6.598;2023-09-18T07:46:16;33.50;;;20.33;;
51852;SDS011;37894;53.172;6.598;2023-09-18T07:48:42;34.15;;;20.58;;
51852;SDS011;37894;53.172;6.598;2023-09-18T07:51:13;37.95;;;20.73;;
51852;SDS011;37894;53.172;6.598;2023-09-18T07:53:41;36.28;;;21.00;;
51852;SDS011;37894;53.172;6.598;2023-09-18T07:56:07;33.83;;;20.58;;
51852;SDS011;37894;53.172;6.598;2023-09-18T07:58:33;49.83;;;22.80;;
51852;SDS011;37894;53.172;6.598;2023-09-18T08:00:59;41.53;;;23.10;;
51852;SDS011;37894;53.172;6.598;2023-09-18T08:03:25;45.45;;;23.10;;
51852;SDS011;37894;53.172;6.598;2023-09-18T08:05:54;55.28;;;24.23;;
51852;SDS011;37894;53.172;6.598;2023-09-18T08:08:20;37.90;;;21.17;;
51852;SDS011;37894;53.172;6.598;2023-09-18T08:10:47;47.85;;;24.38;;
51852;SDS011;37894;53.172;6.598;2023-09-18T08:13:13;45.53;;;24.17;;
51852;SDS011;37894;53.172;6.598;2023-09-18T08:15:39;43.20;;;22.85;;
51852;SDS011;37894;53.172;6.598;2023-09-18T08:18:04;41.53;;;21.80;;
51852;SDS011;37894;53.172;6.598;2023-09-18T08:20:30;36.67;;;21.05;;
51852;SDS011;37894;53.172;6.598;2023-09-18T08:22:58;39.95;;;21.52;;
51852;SDS011;37894;53.172;6.598;2023-09-18T08:25:26;35.00;;;19.95;;
51852;SDS011;37894;53.172;6.598;2023-09-18T08:27:52;49.60;;;23.00;;
51852;SDS011;37894;53.172;6.598;2023-09-18T08:30:18;32.17;;;19.88;;
51852;SDS011;37894;53.172;6.598;2023-09-18T08:32:46;47.92;;;22.65;;
51852;SDS011;37894;53.172;6.598;2023-09-18T08:35:12;35.80;;;20.17;;
51852;SDS011;37894;53.172;6.598;2023-09-18T08:37:41;37.08;;;21.02;;
51852;SDS011;37894;53.172;6.598;2023-09-18T08:40:11;43.40;;;22.17;;
51852;SDS011;37894;53.172;6.598;2023-09-18T08:42:39;36.97;;;19.55;;
51852;SDS011;37894;53.172;6.598;2023-09-18T08:45:09;39.97;;;21.33;;
51852;SDS011;37894;53.172;6.598;2023-09-18T08:47:37;38.10;;;21.48;;
51852;SDS011;37894;53.172;6.598;2023-09-18T08:50:05;30.90;;;19.25;;
51852;SDS011;37894;53.172;6.598;2023-09-18T08:52:32;38.28;;;21.27;;
51852;SDS011;37894;53.172;6.598;2023-09-18T08:54:59;30.88;;;19.08;;
51852;SDS011;37894;53.172;6.598;2023-09-18T08:57:26;33.33;;;19.38;;
51852;SDS011;37894;53.172;6.598;2023-09-18T08:59:54;30.83;;;18.17;;
51852;SDS011;37894;53.172;6.598;2023-09-18T09:02:21;32.70;;;18.73;;
51852;SDS011;37894;53.172;6.598;2023-09-18T09:04:46;32.08;;;18.58;;
51852;SDS011;37894;53.172;6.598;2023-09-18T09:07:12;27.85;;;18.02;;
51852;SDS011;37894;53.172;6.598;2023-09-18T09:09:38;30.80;;;17.38;;
51852;SDS011;37894;53.172;6.598;2023-09-18T09:12:04;35.13;;;19.08;;
51852;SDS011;37894;53.172;6.598;2023-09-18T09:14:30;25.50;;;16.80;;
51852;SDS011;37894;53.172;6.598;2023-09-18T09:16:56;34.58;;;18.77;;
51852;SDS011;37894;53.172;6.598;2023-09-18T09:19:32;29.45;;;18.17;;
51852;SDS011;37894;53.172;6.598;2023-09-18T09:22:02;31.98;;;17.20;;
51852;SDS011;37894;53.172;6.598;2023-09-18T09:27:04;32.83;;;18.45;;
51852;SDS011;37894;53.172;6.598;2023-09-18T09:29:29;34.63;;;19.10;;
51852;SDS011;37894;53.172;6.598;2023-09-18T09:31:56;29.70;;;18.00;;
51852;SDS011;37894;53.172;6.598;2023-09-18T09:34:36;30.13;;;17.42;;
51852;SDS011;37894;53.172;6.598;2023-09-18T09:37:02;32.88;;;19.40;;
51852;SDS011;37894;53.172;6.598;2023-09-18T09:39:29;33.53;;;19.65;;
51852;SDS011;37894;53.172;6.598;2023-09-18T09:41:55;30.92;;;18.65;;
51852;SDS011;37894;53.172;6.598;2023-09-18T09:44:26;26.53;;;17.83;;
51852;SDS011;37894;53.172;6.598;2023-09-18T09:46:54;31.52;;;19.77;;
51852;SDS011;37894;53.172;6.598;2023-09-18T09:49:20;27.83;;;18.15;;
51852;SDS011;37894;53.172;6.598;2023-09-18T09:51:48;23.80;;;16.98;;
51852;SDS011;37894;53.172;6.598;2023-09-18T09:54:13;23.67;;;15.75;;
51852;SDS011;37894;53.172;6.598;2023-09-18T09:56:49;30.92;;;19.48;;
51852;SDS011;37894;53.172;6.598;2023-09-18T09:59:19;26.80;;;17.52;;
51852;SDS011;37894;53.172;6.598;2023-09-18T10:01:48;25.23;;;17.17;;
51852;SDS011;37894;53.172;6.598;2023-09-18T10:04:16;26.58;;;18.17;;
51852;SDS011;37894;53.172;6.598;2023-09-18T10:06:43;25.30;;;17.65;;
51852;SDS011;37894;53.172;6.598;2023-09-18T10:09:13;28.38;;;19.20;;
51852;SDS011;37894;53.172;6.598;2023-09-18T10:11:41;30.45;;;19.90;;
51852;SDS011;37894;53.172;6.598;2023-09-18T10:14:14;36.88;;;21.13;;
51852;SDS011;37894;53.172;6.598;2023-09-18T10:16:45;28.42;;;17.50;;
51852;SDS011;37894;53.172;6.598;2023-09-18T10:19:17;24.35;;;18.15;;
51852;SDS011;37894;53.172;6.598;2023-09-18T10:21:57;23.75;;;18.75;;
51852;SDS011;37894;53.172;6.598;2023-09-18T10:24:32;24.98;;;18.08;;
51852;SDS011;37894;53.172;6.598;2023-09-18T10:27:03;25.27;;;18.73;;
51852;SDS011;37894;53.172;6.598;2023-09-18T10:29:34;26.52;;;18.20;;
51852;SDS011;37894;53.172;6.598;2023-09-18T10:32:05;22.27;;;18.30;;
51852;SDS011;37894;53.172;6.598;2023-09-18T10:34:34;21.40;;;17.73;;
51852;SDS011;37894;53.172;6.598;2023-09-18T10:37:02;24.58;;;18.35;;
51852;SDS011;37894;53.172;6.598;2023-09-18T10:39:34;22.10;;;16.85;;
51852;SDS011;37894;53.172;6.598;2023-09-18T10:42:02;22.75;;;15.85;;
51852;SDS011;37894;53.172;6.598;2023-09-18T10:44:30;22.60;;;14.93;;
51852;SDS011;37894;53.172;6.598;2023-09-18T10:47:00;17.25;;;13.80;;
51852;SDS011;37894;53.172;6.598;2023-09-18T10:49:27;15.98;;;13.13;;
51852;SDS011;37894;53.172;6.598;2023-09-18T10:51:54;13.40;;;10.65;;
51852;SDS011;37894;53.172;6.598;2023-09-18T10:54:22;16.15;;;11.82;;
51852;SDS011;37894;53.172;6.598;2023-09-18T10:56:49;12.70;;;10.23;;
51852;SDS011;37894;53.172;6.598;2023-09-18T10:59:15;12.05;;;9.00;;
51852;SDS011;37894;53.172;6.598;2023-09-18T11:01:42;11.70;;;9.10;;
51852;SDS011;37894;53.172;6.598;2023-09-18T11:04:08;11.68;;;9.30;;
51852;SDS011;37894;53.172;6.598;2023-09-18T11:09:23;9.40;;;7.90;;
51852;SDS011;37894;53.172;6.598;2023-09-18T11:20:17;10.13;;;6.03;;
51852;SDS011;37894;53.172;6.598;2023-09-18T11:22:59;11.68;;;7.45;;
51852;SDS011;37894;53.172;6.598;2023-09-18T11:25:38;8.48;;;5.68;;
51852;SDS011;37894;53.172;6.598;2023-09-18T11:28:07;8.75;;;5.45;;
51852;SDS011;37894;53.172;6.598;2023-09-18T11:30:37;7.50;;;5.10;;
51852;SDS011;37894;53.172;6.598;2023-09-18T11:33:12;10.65;;;5.80;;
51852;SDS011;37894;53.172;6.598;2023-09-18T11:35:38;8.82;;;5.43;;
51852;SDS011;37894;53.172;6.598;2023-09-18T11:38:17;11.05;;;5.75;;
51852;SDS011;37894;53.172;6.598;2023-09-18T11:40:43;18.42;;;6.72;;
51852;SDS011;37894;53.172;6.598;2023-09-18T11:43:26;8.00;;;4.90;;
51852;SDS011;37894;53.172;6.598;2023-09-18T11:45:59;7.22;;;4.78;;
51852;SDS011;37894;53.172;6.598;2023-09-18T11:48:27;11.27;;;4.55;;
51852;SDS011;37894;53.172;6.598;2023-09-18T11:50:54;8.27;;;5.18;;
51852;SDS011;37894;53.172;6.598;2023-09-18T11:53:23;10.10;;;5.22;;
51852;SDS011;37894;53.172;6.598;2023-09-18T11:55:49;6.95;;;4.38;;
51852;SDS011;37894;53.172;6.598;2023-09-18T11:58:15;5.97;;;4.20;;
51852;SDS011;37894;53.172;6.598;2023-09-18T12:00:41;6.15;;;3.80;;
51852;SDS011;37894;53.172;6.598;2023-09-18T12:03:23;6.78;;;3.78;;
51852;SDS011;37894;53.172;6.598;2023-09-18T12:06:01;5.35;;;3.50;;
51852;SDS011;37894;53.172;6.598;2023-09-18T12:08:30;9.40;;;4.10;;
51852;SDS011;37894;53.172;6.598;2023-09-18T12:10:56;7.22;;;4.10;;
51852;SDS011;37894;53.172;6.598;2023-09-18T12:13:26;5.88;;;4.18;;
51852;SDS011;37894;53.172;6.598;2023-09-18T12:16:02;6.32;;;4.32;;
51852;SDS011;37894;53.172;6.598;2023-09-18T12:18:33;6.95;;;3.90;;
51852;SDS011;37894;53.172;6.598;2023-09-18T12:21:02;9.18;;;4.10;;
51852;SDS011;37894;53.172;6.598;2023-09-18T12:23:37;5.07;;;3.22;;
51852;SDS011;37894;53.172;6.598;2023-09-18T12:26:04;6.30;;;3.58;;
51852;SDS011;37894;53.172;6.598;2023-09-18T12:28:35;4.90;;;3.58;;
51852;SDS011;37894;53.172;6.598;2023-09-18T12:31:02;7.97;;;3.90;;
51852;SDS011;37894;53.172;6.598;2023-09-18T12:33:35;5.97;;;3.67;;
51852;SDS011;37894;53.172;6.598;2023-09-18T12:36:04;6.75;;;3.75;;
51852;SDS011;37894;53.172;6.598;2023-09-18T12:38:32;5.23;;;3.20;;
51852;SDS011;37894;53.172;6.598;2023-09-18T12:40:58;6.72;;;3.70;;
51852;SDS011;37894;53.172;6.598;2023-09-18T12:43:37;7.20;;;3.50;;
51852;SDS011;37894;53.172;6.598;2023-09-18T12:46:07;6.28;;;3.60;;
51852;SDS011;37894;53.172;6.598;2023-09-18T12:48:37;8.07;;;4.40;;
51852;SDS011;37894;53.172;6.598;2023-09-18T12:51:07;5.35;;;3.70;;
51852;SDS011;37894;53.172;6.598;2023-09-18T12:53:33;5.53;;;3.50;;
51852;SDS011;37894;53.172;6.598;2023-09-18T12:56:09;7.72;;;3.67;;
51852;SDS011;37894;53.172;6.598;2023-09-18T12:58:37;7.03;;;3.63;;
51852;SDS011;37894;53.172;6.598;2023-09-18T13:01:04;5.40;;;3.30;;
51852;SDS011;37894;53.172;6.598;2023-09-18T13:03:42;14.20;;;5.32;;
51852;SDS011;37894;53.172;6.598;2023-09-18T13:06:09;5.30;;;3.50;;
51852;SDS011;37894;53.172;6.598;2023-09-18T13:08:45;10.02;;;3.58;;
51852;SDS011;37894;53.172;6.598;2023-09-18T13:11:12;6.55;;;3.45;;
51852;SDS011;37894;53.172;6.598;2023-09-18T13:13:39;6.35;;;3.55;;
51852;SDS011;37894;53.172;6.598;2023-09-18T13:16:07;8.68;;;3.95;;
51852;SDS011;37894;53.172;6.598;2023-09-18T13:18:37;25.35;;;6.40;;
51852;SDS011;37894;53.172;6.598;2023-09-18T13:21:10;5.40;;;3.63;;
51852;SDS011;37894;53.172;6.598;2023-09-18T13:23:36;17.58;;;5.95;;
51852;SDS011;37894;53.172;6.598;2023-09-18T13:26:03;7.47;;;3.83;;
51852;SDS011;37894;53.172;6.598;2023-09-18T13:28:30;5.57;;;3.83;;
51852;SDS011;37894;53.172;6.598;2023-09-18T13:30:58;5.95;;;3.85;;
51852;SDS011;37894;53.172;6.598;2023-09-18T13:33:25;8.85;;;3.78;;
51852;SDS011;37894;53.172;6.598;2023-09-18T13:35:51;7.70;;;3.78;;
51852;SDS011;37894;53.172;6.598;2023-09-18T13:38:18;6.82;;;3.28;;
51852;SDS011;37894;53.172;6.598;2023-09-18T13:40:45;5.68;;;3.80;;
51852;SDS011;37894;53.172;6.598;2023-09-18T13:43:12;5.53;;;3.20;;
51852;SDS011;37894;53.172;6.598;2023-09-18T13:45:40;6.97;;;3.20;;
51852;SDS011;37894;53.172;6.598;2023-09-18T13:48:06;4.70;;;3.15;;
51852;SDS011;37894;53.172;6.598;2023-09-18T13:50:33;4.22;;;2.78;;
51852;SDS011;37894;53.172;6.598;2023-09-18T13:52:59;4.85;;;3.03;;
51852;SDS011;37894;53.172;6.598;2023-09-18T13:55:32;4.40;;;2.88;;
51852;SDS011;37894;53.172;6.598;2023-09-18T13:57:58;5.22;;;3.10;;
51852;SDS011;37894;53.172;6.598;2023-09-18T14:00:24;8.57;;;3.92;;
51852;SDS011;37894;53.172;6.598;2023-09-18T14:02:51;4.35;;;3.03;;
51852;SDS011;37894;53.172;6.598;2023-09-18T14:05:17;6.57;;;3.20;;
51852;SDS011;37894;53.172;6.598;2023-09-18T14:07:43;5.18;;;3.13;;
51852;SDS011;37894;53.172;6.598;2023-09-18T14:10:09;4.28;;;2.67;;
51852;SDS011;37894;53.172;6.598;2023-09-18T14:12:38;6.53;;;3.22;;
51852;SDS011;37894;53.172;6.598;2023-09-18T14:15:05;5.20;;;3.38;;
51852;SDS011;37894;53.172;6.598;2023-09-18T14:17:32;8.05;;;3.42;;
51852;SDS011;37894;53.172;6.598;2023-09-18T14:19:58;7.60;;;3.70;;
51852;SDS011;37894;53.172;6.598;2023-09-18T14:22:24;5.38;;;3.10;;
51852;SDS011;37894;53.172;6.598;2023-09-18T14:24:51;8.18;;;3.42;;
51852;SDS011;37894;53.172;6.598;2023-09-18T14:27:17;7.88;;;2.88;;
51852;SDS011;37894;53.172;6.598;2023-09-18T14:29:42;6.35;;;2.80;;
51852;SDS011;37894;53.172;6.598;2023-09-18T14:32:08;7.35;;;3.17;;
51852;SDS011;37894;53.172;6.598;2023-09-18T14:34:34;5.97;;;2.72;;
51852;SDS011;37894;53.172;6.598;2023-09-18T14:37:03;6.70;;;3.17;;
51852;SDS011;37894;53.172;6.598;2023-09-18T14:39:30;5.95;;;3.08;;
51852;SDS011;37894;53.172;6.598;2023-09-18T14:41:56;5.20;;;3.00;;
51852;SDS011;37894;53.172;6.598;2023-09-18T14:44:22;5.93;;;3.00;;
51852;SDS011;37894;53.172;6.598;2023-09-18T14:46:48;6.38;;;3.38;;